Wednesday, January 17, 2018, 11:28 AM GMT
Back to Local

CWRK, Bancroft Automatic Weather Reporting System

Location: , , Canada Lat: 45.067
Local Time: 11:28 AM GMT (11:28 GMT) Lon: -77.867
Time Zone: GMT Elev: 1085 ft

Show me the last for .
Show Coded

Time T Td Feel RH Dir Speed Gust Alt SLP Vis Weather Sky Remarks
2018-01-17 11:00 3 -1 - 83 280° 1 - - 30.35 0 None
2018-01-17 10:00 2 1 - 91 220° 1 - - 30.35 0 None
2018-01-17 09:00 -2 -6 - 82 270° 1 - - 30.35 0 None
2018-01-17 08:00 0 -4 - 82 190° 1 - - 30.36 0 None
2018-01-17 07:00 -5 -10 - 81 - Calm - - 30.36 0 None
2018-01-17 06:00 -4 -8 - 81 - Calm - - 30.36 0 None
2018-01-17 05:00 -1 -6 - 81 210° 2 - - 30.37 0 None
2018-01-17 04:00 1 -2 - 83 - Calm - - 30.39 0 None
2018-01-17 03:00 5 1 - 85 - Calm - - 30.39 0 None
2018-01-17 02:00 6 3 - 86 190° 2 - - 30.39 0 None
2018-01-17 01:00 10 7 - 84 190° 1 - - 30.39 0 None
2018-01-17 00:00 17 12 - 82 200° 2 - - 30.39 0 None
2018-01-16 23:00 17 13 12 81 210° 3 - - 30.37 0 None
2018-01-16 22:00 17 13 - 83 170° 2 - - 30.37 0 None
2018-01-16 21:00 18 12 12 78 200° 3 - - 30.36 0 None
2018-01-16 20:00 18 12 - 78 200° 2 - - 30.35 0 None
2018-01-16 19:00 17 12 - 78 120° 2 - - 30.35 0 None
2018-01-16 18:00 15 8 - 73 - Calm - - 30.35 0 None
2018-01-16 17:00 13 6 - 74 - Calm - - 30.38 0 None
2018-01-16 16:00 9 2 - 71 - Calm - - 30.41 0 1-hr Precip Total: 0.01"
2018-01-16 15:00 5 -1 - 76 30° 2 - - 30.42 0 None
2018-01-16 14:00 2 -2 - 82 - Calm - - 30.42 0 None
2018-01-16 13:00 -2 -6 - 81 300° 1 - - 30.41 0 1-hr Precip Total: 0.01"
2018-01-16 12:00 3 -2 - 80 350° 1 - - 30.40 0 None

Support USWX by starting your Amazon purchase here.